Terminal Aerodrome Forecast
Issued by NWS

Home | Current Version | Previous Version | Graphics & Text | Print | Product List | Glossary On
Versions: 1 2 3 4 5 6 7 8 9 10 11 12 13 14 15 16
015
FTUS43 KBIS 212331
TAFDIK
TAF
KDIK 212331Z 2200/2224 16020G30KT P6SM SKC
     FM220200 17013G21KT P6SM SCT250
     FM220500 19012KT P6SM FEW250
     FM221100 22006KT P6SM FEW250
     FM221400 28007KT P6SM SCT150=

USA.gov is the U.S. government's official web portal to all federal, state and local government web resources and services.